sensor_id;sensor_type;location;lat;lon;timestamp;temperature;humidity
15834;DHT22;8017;50.812;4.934;2022-07-15T00:01:17;14.90;99.90
15834;DHT22;8017;50.812;4.934;2022-07-15T00:04:20;14.80;99.90
15834;DHT22;8017;50.812;4.934;2022-07-15T00:07:23;14.90;99.90
15834;DHT22;8017;50.812;4.934;2022-07-15T00:10:25;14.80;99.90
15834;DHT22;8017;50.812;4.934;2022-07-15T00:13:27;14.70;99.90
15834;DHT22;8017;50.812;4.934;2022-07-15T00:16:29;14.70;99.90
15834;DHT22;8017;50.812;4.934;2022-07-15T00:19:33;14.70;99.90
15834;DHT22;8017;50.812;4.934;2022-07-15T00:22:35;14.80;99.90
15834;DHT22;8017;50.812;4.934;2022-07-15T00:25:37;14.90;99.90
15834;DHT22;8017;50.812;4.934;2022-07-15T00:28:39;15.00;99.90
15834;DHT22;8017;50.812;4.934;2022-07-15T00:31:40;15.10;99.90
15834;DHT22;8017;50.812;4.934;2022-07-15T00:34:44;15.20;99.90
15834;DHT22;8017;50.812;4.934;2022-07-15T00:37:46;15.20;99.90
15834;DHT22;8017;50.812;4.934;2022-07-15T00:40:49;15.10;99.90
15834;DHT22;8017;50.812;4.934;2022-07-15T00:43:51;15.00;99.90
15834;DHT22;8017;50.812;4.934;2022-07-15T00:46:53;14.90;99.90
15834;DHT22;8017;50.812;4.934;2022-07-15T00:49:58;14.90;99.90
15834;DHT22;8017;50.812;4.934;2022-07-15T00:53:04;14.70;99.90
15834;DHT22;8017;50.812;4.934;2022-07-15T00:56:08;14.70;99.90
15834;DHT22;8017;50.812;4.934;2022-07-15T00:59:12;14.80;99.90
15834;DHT22;8017;50.812;4.934;2022-07-15T01:02:14;14.80;99.90
15834;DHT22;8017;50.812;4.934;2022-07-15T01:05:19;14.70;99.90
15834;DHT22;8017;50.812;4.934;2022-07-15T01:08:21;14.70;99.90
15834;DHT22;8017;50.812;4.934;2022-07-15T01:11:24;14.60;99.90
15834;DHT22;8017;50.812;4.934;2022-07-15T01:14:26;14.60;99.90
15834;DHT22;8017;50.812;4.934;2022-07-15T01:17:28;14.60;99.90
15834;DHT22;8017;50.812;4.934;2022-07-15T01:20:31;14.60;99.90
15834;DHT22;8017;50.812;4.934;2022-07-15T01:23:34;14.60;99.90
15834;DHT22;8017;50.812;4.934;2022-07-15T01:26:37;14.40;99.90
15834;DHT22;8017;50.812;4.934;2022-07-15T01:29:39;14.20;99.90
15834;DHT22;8017;50.812;4.934;2022-07-15T01:32:40;14.00;99.90
15834;DHT22;8017;50.812;4.934;2022-07-15T01:35:42;13.90;99.90
15834;DHT22;8017;50.812;4.934;2022-07-15T01:38:46;13.80;99.90
15834;DHT22;8017;50.812;4.934;2022-07-15T01:41:48;13.80;99.90
15834;DHT22;8017;50.812;4.934;2022-07-15T01:44:50;13.70;99.90
15834;DHT22;8017;50.812;4.934;2022-07-15T01:47:52;13.90;99.90
15834;DHT22;8017;50.812;4.934;2022-07-15T01:50:55;14.00;99.90
15834;DHT22;8017;50.812;4.934;2022-07-15T01:53:57;14.00;99.90
15834;DHT22;8017;50.812;4.934;2022-07-15T01:56:59;13.90;99.90
15834;DHT22;8017;50.812;4.934;2022-07-15T02:00:01;13.80;99.90
15834;DHT22;8017;50.812;4.934;2022-07-15T02:03:03;13.70;99.90
15834;DHT22;8017;50.812;4.934;2022-07-15T02:06:05;13.70;99.90
15834;DHT22;8017;50.812;4.934;2022-07-15T02:09:09;13.60;99.90
15834;DHT22;8017;50.812;4.934;2022-07-15T02:12:11;13.50;99.90
15834;DHT22;8017;50.812;4.934;2022-07-15T02:15:13;13.60;99.90
15834;DHT22;8017;50.812;4.934;2022-07-15T02:18:14;13.60;99.90
15834;DHT22;8017;50.812;4.934;2022-07-15T02:21:16;13.60;99.90
15834;DHT22;8017;50.812;4.934;2022-07-15T02:24:20;13.60;99.90
15834;DHT22;8017;50.812;4.934;2022-07-15T02:27:22;13.60;99.90
15834;DHT22;8017;50.812;4.934;2022-07-15T02:30:24;13.60;99.90
15834;DHT22;8017;50.812;4.934;2022-07-15T02:33:27;13.60;99.90
15834;DHT22;8017;50.812;4.934;2022-07-15T02:36:29;13.60;99.90
15834;DHT22;8017;50.812;4.934;2022-07-15T02:39:32;13.50;99.90
15834;DHT22;8017;50.812;4.934;2022-07-15T02:42:34;13.50;99.90
15834;DHT22;8017;50.812;4.934;2022-07-15T02:45:37;13.40;99.90
15834;DHT22;8017;50.812;4.934;2022-07-15T02:48:39;13.50;99.90
15834;DHT22;8017;50.812;4.934;2022-07-15T02:51:41;13.50;99.90
15834;DHT22;8017;50.812;4.934;2022-07-15T02:54:45;13.50;99.90
15834;DHT22;8017;50.812;4.934;2022-07-15T02:57:47;13.50;99.90
15834;DHT22;8017;50.812;4.934;2022-07-15T03:00:49;13.50;99.90
15834;DHT22;8017;50.812;4.934;2022-07-15T03:03:50;13.50;99.90
15834;DHT22;8017;50.812;4.934;2022-07-15T03:06:53;13.50;99.90
15834;DHT22;8017;50.812;4.934;2022-07-15T03:09:57;13.50;99.90
15834;DHT22;8017;50.812;4.934;2022-07-15T03:12:59;13.40;99.90
15834;DHT22;8017;50.812;4.934;2022-07-15T03:16:01;13.40;99.90
15834;DHT22;8017;50.812;4.934;2022-07-15T03:19:04;13.30;99.90
15834;DHT22;8017;50.812;4.934;2022-07-15T03:22:06;13.30;99.90
15834;DHT22;8017;50.812;4.934;2022-07-15T03:25:09;13.30;99.90
15834;DHT22;8017;50.812;4.934;2022-07-15T03:28:11;13.20;99.90
15834;DHT22;8017;50.812;4.934;2022-07-15T03:31:13;13.20;99.90
15834;DHT22;8017;50.812;4.934;2022-07-15T03:34:15;13.10;99.90
15834;DHT22;8017;50.812;4.934;2022-07-15T03:37:17;13.10;99.90
15834;DHT22;8017;50.812;4.934;2022-07-15T03:40:21;13.10;99.90
15834;DHT22;8017;50.812;4.934;2022-07-15T03:43:23;13.10;99.90
15834;DHT22;8017;50.812;4.934;2022-07-15T03:46:27;13.10;99.90
15834;DHT22;8017;50.812;4.934;2022-07-15T03:49:30;13.20;99.90
15834;DHT22;8017;50.812;4.934;2022-07-15T03:52:32;13.20;99.90
15834;DHT22;8017;50.812;4.934;2022-07-15T03:55:35;13.10;99.90
15834;DHT22;8017;50.812;4.934;2022-07-15T03:58:38;13.20;99.90
15834;DHT22;8017;50.812;4.934;2022-07-15T04:01:40;13.10;99.90
15834;DHT22;8017;50.812;4.934;2022-07-15T04:04:42;13.20;99.90
15834;DHT22;8017;50.812;4.934;2022-07-15T04:07:44;13.20;99.90
15834;DHT22;8017;50.812;4.934;2022-07-15T04:10:47;13.30;99.90
15834;DHT22;8017;50.812;4.934;2022-07-15T04:13:49;13.30;99.90
15834;DHT22;8017;50.812;4.934;2022-07-15T04:16:51;13.30;99.90
15834;DHT22;8017;50.812;4.934;2022-07-15T04:19:53;13.40;99.90
15834;DHT22;8017;50.812;4.934;2022-07-15T04:22:55;13.60;99.90
15834;DHT22;8017;50.812;4.934;2022-07-15T04:25:58;13.70;99.90
15834;DHT22;8017;50.812;4.934;2022-07-15T04:29:00;13.80;99.90
15834;DHT22;8017;50.812;4.934;2022-07-15T04:32:02;14.00;99.90
15834;DHT22;8017;50.812;4.934;2022-07-15T04:35:05;14.10;99.90
15834;DHT22;8017;50.812;4.934;2022-07-15T04:38:08;14.10;99.90
15834;DHT22;8017;50.812;4.934;2022-07-15T04:41:11;14.20;99.90
15834;DHT22;8017;50.812;4.934;2022-07-15T04:44:13;14.20;99.90
15834;DHT22;8017;50.812;4.934;2022-07-15T04:47:15;14.30;99.90
15834;DHT22;8017;50.812;4.934;2022-07-15T04:50:17;14.30;99.90
15834;DHT22;8017;50.812;4.934;2022-07-15T04:53:36;14.40;99.90
15834;DHT22;8017;50.812;4.934;2022-07-15T04:56:39;14.50;99.90
15834;DHT22;8017;50.812;4.934;2022-07-15T04:59:41;14.60;99.90
15834;DHT22;8017;50.812;4.934;2022-07-15T05:02:43;14.80;99.90
15834;DHT22;8017;50.812;4.934;2022-07-15T05:05:45;14.60;99.90
15834;DHT22;8017;50.812;4.934;2022-07-15T05:08:49;14.50;99.90
15834;DHT22;8017;50.812;4.934;2022-07-15T05:11:53;14.30;99.90
15834;DHT22;8017;50.812;4.934;2022-07-15T05:14:54;14.20;99.90
15834;DHT22;8017;50.812;4.934;2022-07-15T05:17:56;14.20;99.90
15834;DHT22;8017;50.812;4.934;2022-07-15T05:20:58;14.20;99.90
15834;DHT22;8017;50.812;4.934;2022-07-15T05:24:00;14.20;99.90
15834;DHT22;8017;50.812;4.934;2022-07-15T05:27:04;14.20;99.90
15834;DHT22;8017;50.812;4.934;2022-07-15T05:30:07;14.20;99.90
15834;DHT22;8017;50.812;4.934;2022-07-15T05:33:09;14.10;99.90
15834;DHT22;8017;50.812;4.934;2022-07-15T05:36:12;14.00;99.90
15834;DHT22;8017;50.812;4.934;2022-07-15T05:39:14;13.90;99.90
15834;DHT22;8017;50.812;4.934;2022-07-15T05:42:17;13.90;99.90
15834;DHT22;8017;50.812;4.934;2022-07-15T05:45:19;14.00;99.90
15834;DHT22;8017;50.812;4.934;2022-07-15T05:48:21;14.30;99.90
15834;DHT22;8017;50.812;4.934;2022-07-15T05:51:23;14.60;99.90
15834;DHT22;8017;50.812;4.934;2022-07-15T05:54:24;14.70;99.90
15834;DHT22;8017;50.812;4.934;2022-07-15T05:57:28;14.90;99.90
15834;DHT22;8017;50.812;4.934;2022-07-15T06:00:30;15.00;99.90
15834;DHT22;8017;50.812;4.934;2022-07-15T06:03:32;15.00;99.90
15834;DHT22;8017;50.812;4.934;2022-07-15T06:06:34;15.20;99.90
15834;DHT22;8017;50.812;4.934;2022-07-15T06:09:36;15.20;99.90
15834;DHT22;8017;50.812;4.934;2022-07-15T06:12:39;15.50;99.90
15834;DHT22;8017;50.812;4.934;2022-07-15T06:15:41;15.70;99.90
15834;DHT22;8017;50.812;4.934;2022-07-15T06:18:43;15.70;99.90
15834;DHT22;8017;50.812;4.934;2022-07-15T06:21:45;15.80;99.90
15834;DHT22;8017;50.812;4.934;2022-07-15T06:24:47;15.90;99.90
15834;DHT22;8017;50.812;4.934;2022-07-15T06:27:50;16.00;99.90
15834;DHT22;8017;50.812;4.934;2022-07-15T06:30:52;16.20;99.90
15834;DHT22;8017;50.812;4.934;2022-07-15T06:33:53;16.30;99.90
15834;DHT22;8017;50.812;4.934;2022-07-15T06:36:59;16.40;99.90
15834;DHT22;8017;50.812;4.934;2022-07-15T06:40:01;16.50;99.90
15834;DHT22;8017;50.812;4.934;2022-07-15T06:43:05;16.40;99.90
15834;DHT22;8017;50.812;4.934;2022-07-15T06:46:07;16.50;99.90
15834;DHT22;8017;50.812;4.934;2022-07-15T06:49:09;16.60;99.90
15834;DHT22;8017;50.812;4.934;2022-07-15T06:52:10;16.50;99.90
15834;DHT22;8017;50.812;4.934;2022-07-15T06:55:12;16.50;99.90
15834;DHT22;8017;50.812;4.934;2022-07-15T06:58:15;16.60;99.90
15834;DHT22;8017;50.812;4.934;2022-07-15T07:01:18;16.80;99.90
15834;DHT22;8017;50.812;4.934;2022-07-15T07:04:19;16.90;99.90
15834;DHT22;8017;50.812;4.934;2022-07-15T07:07:21;16.90;99.90
15834;DHT22;8017;50.812;4.934;2022-07-15T07:10:23;17.00;99.90
15834;DHT22;8017;50.812;4.934;2022-07-15T07:13:28;17.10;99.90
15834;DHT22;8017;50.812;4.934;2022-07-15T07:16:29;17.20;99.90
15834;DHT22;8017;50.812;4.934;2022-07-15T07:19:32;17.40;99.90
15834;DHT22;8017;50.812;4.934;2022-07-15T07:22:34;17.80;99.90
15834;DHT22;8017;50.812;4.934;2022-07-15T07:25:36;18.00;99.90
15834;DHT22;8017;50.812;4.934;2022-07-15T07:28:40;18.10;99.90
15834;DHT22;8017;50.812;4.934;2022-07-15T07:31:42;18.00;99.90
15834;DHT22;8017;50.812;4.934;2022-07-15T07:34:44;17.80;99.90
15834;DHT22;8017;50.812;4.934;2022-07-15T07:37:46;17.80;99.90
15834;DHT22;8017;50.812;4.934;2022-07-15T07:40:48;17.80;99.90
15834;DHT22;8017;50.812;4.934;2022-07-15T07:43:51;17.80;99.90
15834;DHT22;8017;50.812;4.934;2022-07-15T07:46:53;17.50;99.90
15834;DHT22;8017;50.812;4.934;2022-07-15T07:49:54;17.60;99.90
15834;DHT22;8017;50.812;4.934;2022-07-15T07:52:56;17.70;99.90
15834;DHT22;8017;50.812;4.934;2022-07-15T07:55:58;17.80;99.90
15834;DHT22;8017;50.812;4.934;2022-07-15T07:59:01;18.00;99.90
15834;DHT22;8017;50.812;4.934;2022-07-15T08:02:03;18.20;99.90
15834;DHT22;8017;50.812;4.934;2022-07-15T08:05:06;18.10;99.90
15834;DHT22;8017;50.812;4.934;2022-07-15T08:08:10;18.40;99.90
15834;DHT22;8017;50.812;4.934;2022-07-15T08:11:12;18.20;99.90
15834;DHT22;8017;50.812;4.934;2022-07-15T08:14:16;18.30;99.90
15834;DHT22;8017;50.812;4.934;2022-07-15T08:17:18;18.40;99.90
15834;DHT22;8017;50.812;4.934;2022-07-15T08:20:20;18.40;99.90
15834;DHT22;8017;50.812;4.934;2022-07-15T08:23:23;18.50;99.90
15834;DHT22;8017;50.812;4.934;2022-07-15T08:26:25;18.70;99.90
15834;DHT22;8017;50.812;4.934;2022-07-15T08:29:28;18.90;99.90
15834;DHT22;8017;50.812;4.934;2022-07-15T08:32:30;19.00;99.90
15834;DHT22;8017;50.812;4.934;2022-07-15T08:35:32;19.00;99.90
15834;DHT22;8017;50.812;4.934;2022-07-15T08:38:34;19.00;99.90
15834;DHT22;8017;50.812;4.934;2022-07-15T08:41:36;19.00;99.90
15834;DHT22;8017;50.812;4.934;2022-07-15T08:44:40;19.20;99.90
15834;DHT22;8017;50.812;4.934;2022-07-15T08:47:43;19.30;99.90
15834;DHT22;8017;50.812;4.934;2022-07-15T08:50:45;19.70;99.90
15834;DHT22;8017;50.812;4.934;2022-07-15T08:53:47;19.90;99.90
15834;DHT22;8017;50.812;4.934;2022-07-15T08:56:49;19.60;99.90
15834;DHT22;8017;50.812;4.934;2022-07-15T08:59:53;19.60;99.90
15834;DHT22;8017;50.812;4.934;2022-07-15T09:02:56;19.60;99.90
15834;DHT22;8017;50.812;4.934;2022-07-15T09:05:58;19.40;99.90
15834;DHT22;8017;50.812;4.934;2022-07-15T09:09:25;19.50;99.90
15834;DHT22;8017;50.812;4.934;2022-07-15T09:12:39;19.60;99.90
15834;DHT22;8017;50.812;4.934;2022-07-15T09:15:43;19.60;99.90
15834;DHT22;8017;50.812;4.934;2022-07-15T09:18:46;19.60;99.90
15834;DHT22;8017;50.812;4.934;2022-07-15T09:22:00;19.80;99.90
15834;DHT22;8017;50.812;4.934;2022-07-15T09:25:06;19.80;99.90
15834;DHT22;8017;50.812;4.934;2022-07-15T09:28:08;19.80;99.90
15834;DHT22;8017;50.812;4.934;2022-07-15T09:31:11;19.80;99.90
15834;DHT22;8017;50.812;4.934;2022-07-15T09:34:31;19.90;99.90
15834;DHT22;8017;50.812;4.934;2022-07-15T09:37:33;19.80;99.90
15834;DHT22;8017;50.812;4.934;2022-07-15T09:40:47;19.90;99.90
15834;DHT22;8017;50.812;4.934;2022-07-15T09:43:51;19.60;99.90
15834;DHT22;8017;50.812;4.934;2022-07-15T09:46:57;20.00;99.90
15834;DHT22;8017;50.812;4.934;2022-07-15T09:49:59;20.00;99.90
15834;DHT22;8017;50.812;4.934;2022-07-15T09:53:03;20.30;99.90
15834;DHT22;8017;50.812;4.934;2022-07-15T09:56:08;20.30;99.90
15834;DHT22;8017;50.812;4.934;2022-07-15T09:59:11;20.00;99.90
15834;DHT22;8017;50.812;4.934;2022-07-15T10:02:14;20.40;99.90
15834;DHT22;8017;50.812;4.934;2022-07-15T10:05:16;20.70;99.90
15834;DHT22;8017;50.812;4.934;2022-07-15T10:08:19;20.60;99.90
15834;DHT22;8017;50.812;4.934;2022-07-15T10:11:21;20.60;99.90
15834;DHT22;8017;50.812;4.934;2022-07-15T10:14:51;20.60;99.90
15834;DHT22;8017;50.812;4.934;2022-07-15T10:18:17;20.40;99.90
15834;DHT22;8017;50.812;4.934;2022-07-15T10:21:32;20.10;99.90
15834;DHT22;8017;50.812;4.934;2022-07-15T10:24:50;20.10;99.90
15834;DHT22;8017;50.812;4.934;2022-07-15T10:28:01;20.50;99.90
15834;DHT22;8017;50.812;4.934;2022-07-15T10:31:16;20.60;99.90
15834;DHT22;8017;50.812;4.934;2022-07-15T10:34:20;20.70;99.90
15834;DHT22;8017;50.812;4.934;2022-07-15T10:37:23;20.40;99.90
15834;DHT22;8017;50.812;4.934;2022-07-15T10:40:58;20.40;99.90
15834;DHT22;8017;50.812;4.934;2022-07-15T10:44:09;20.60;99.90
15834;DHT22;8017;50.812;4.934;2022-07-15T10:47:19;20.70;99.90
15834;DHT22;8017;50.812;4.934;2022-07-15T10:50:43;21.10;99.90
15834;DHT22;8017;50.812;4.934;2022-07-15T10:53:51;21.30;99.90
15834;DHT22;8017;50.812;4.934;2022-07-15T10:56:53;21.40;99.90
15834;DHT22;8017;50.812;4.934;2022-07-15T10:59:56;21.80;99.90
15834;DHT22;8017;50.812;4.934;2022-07-15T11:03:03;22.00;99.90
15834;DHT22;8017;50.812;4.934;2022-07-15T11:06:07;22.20;99.90
15834;DHT22;8017;50.812;4.934;2022-07-15T11:09:09;22.40;99.90
15834;DHT22;8017;50.812;4.934;2022-07-15T11:12:11;22.70;99.90
15834;DHT22;8017;50.812;4.934;2022-07-15T11:15:14;22.80;99.90
15834;DHT22;8017;50.812;4.934;2022-07-15T11:18:17;22.80;99.90
15834;DHT22;8017;50.812;4.934;2022-07-15T11:21:21;22.80;99.90
15834;DHT22;8017;50.812;4.934;2022-07-15T11:24:23;22.90;99.90
15834;DHT22;8017;50.812;4.934;2022-07-15T11:27:26;22.90;99.90
15834;DHT22;8017;50.812;4.934;2022-07-15T11:30:30;22.70;99.90
15834;DHT22;8017;50.812;4.934;2022-07-15T11:33:33;22.60;99.90
15834;DHT22;8017;50.812;4.934;2022-07-15T11:36:37;22.90;99.90
15834;DHT22;8017;50.812;4.934;2022-07-15T11:39:39;23.00;99.90
15834;DHT22;8017;50.812;4.934;2022-07-15T11:42:41;23.30;99.90
15834;DHT22;8017;50.812;4.934;2022-07-15T11:46:01;23.70;99.90
15834;DHT22;8017;50.812;4.934;2022-07-15T11:49:05;23.90;99.90
15834;DHT22;8017;50.812;4.934;2022-07-15T11:52:10;23.40;99.90
15834;DHT22;8017;50.812;4.934;2022-07-15T11:55:12;23.10;99.90
15834;DHT22;8017;50.812;4.934;2022-07-15T11:58:14;23.30;99.90
15834;DHT22;8017;50.812;4.934;2022-07-15T12:01:18;23.50;99.90
15834;DHT22;8017;50.812;4.934;2022-07-15T12:04:26;23.90;99.90
15834;DHT22;8017;50.812;4.934;2022-07-15T12:07:40;24.50;99.90
15834;DHT22;8017;50.812;4.934;2022-07-15T12:10:42;24.90;99.90
15834;DHT22;8017;50.812;4.934;2022-07-15T12:13:48;25.20;99.90
15834;DHT22;8017;50.812;4.934;2022-07-15T12:16:52;24.40;99.90
15834;DHT22;8017;50.812;4.934;2022-07-15T12:19:54;23.80;99.90
15834;DHT22;8017;50.812;4.934;2022-07-15T12:23:09;23.60;99.90
15834;DHT22;8017;50.812;4.934;2022-07-15T12:26:11;23.50;99.90
15834;DHT22;8017;50.812;4.934;2022-07-15T12:29:13;23.50;99.90
15834;DHT22;8017;50.812;4.934;2022-07-15T12:32:16;23.60;99.90
15834;DHT22;8017;50.812;4.934;2022-07-15T12:35:20;24.00;99.90
15834;DHT22;8017;50.812;4.934;2022-07-15T12:38:28;24.40;99.90
15834;DHT22;8017;50.812;4.934;2022-07-15T12:41:31;24.70;99.90
15834;DHT22;8017;50.812;4.934;2022-07-15T12:44:33;24.60;99.90
15834;DHT22;8017;50.812;4.934;2022-07-15T12:47:35;24.30;99.90
15834;DHT22;8017;50.812;4.934;2022-07-15T12:50:58;24.30;99.90
15834;DHT22;8017;50.812;4.934;2022-07-15T12:54:04;23.90;99.90
15834;DHT22;8017;50.812;4.934;2022-07-15T12:57:18;24.10;99.90
15834;DHT22;8017;50.812;4.934;2022-07-15T13:00:22;24.20;99.90
15834;DHT22;8017;50.812;4.934;2022-07-15T13:03:26;24.10;99.90
15834;DHT22;8017;50.812;4.934;2022-07-15T13:06:28;24.30;99.90
15834;DHT22;8017;50.812;4.934;2022-07-15T13:09:31;24.70;99.90
15834;DHT22;8017;50.812;4.934;2022-07-15T13:12:33;24.80;99.90
15834;DHT22;8017;50.812;4.934;2022-07-15T13:15:35;25.00;99.90
15834;DHT22;8017;50.812;4.934;2022-07-15T13:18:37;25.00;99.90
15834;DHT22;8017;50.812;4.934;2022-07-15T13:21:39;25.00;99.90
15834;DHT22;8017;50.812;4.934;2022-07-15T13:24:42;24.60;99.90
15834;DHT22;8017;50.812;4.934;2022-07-15T13:27:44;24.50;99.90
15834;DHT22;8017;50.812;4.934;2022-07-15T13:30:46;24.80;99.90
15834;DHT22;8017;50.812;4.934;2022-07-15T13:33:49;24.70;99.90
15834;DHT22;8017;50.812;4.934;2022-07-15T13:36:51;24.40;99.90
15834;DHT22;8017;50.812;4.934;2022-07-15T13:39:54;24.70;99.90
15834;DHT22;8017;50.812;4.934;2022-07-15T13:42:56;24.90;99.90
15834;DHT22;8017;50.812;4.934;2022-07-15T13:45:58;24.90;99.90
15834;DHT22;8017;50.812;4.934;2022-07-15T13:49:00;24.70;99.90
15834;DHT22;8017;50.812;4.934;2022-07-15T13:52:02;24.90;99.90
15834;DHT22;8017;50.812;4.934;2022-07-15T13:55:06;25.20;99.90
15834;DHT22;8017;50.812;4.934;2022-07-15T13:58:08;25.20;99.90
15834;DHT22;8017;50.812;4.934;2022-07-15T14:01:10;25.20;99.90
15834;DHT22;8017;50.812;4.934;2022-07-15T14:04:12;24.90;99.90
15834;DHT22;8017;50.812;4.934;2022-07-15T14:07:14;25.00;99.90
15834;DHT22;8017;50.812;4.934;2022-07-15T14:10:18;25.10;99.90
15834;DHT22;8017;50.812;4.934;2022-07-15T14:13:20;24.90;99.90
15834;DHT22;8017;50.812;4.934;2022-07-15T14:16:24;25.00;99.50
15834;DHT22;8017;50.812;4.934;2022-07-15T14:19:26;25.10;99.70
15834;DHT22;8017;50.812;4.934;2022-07-15T14:22:29;24.80;99.70
15834;DHT22;8017;50.812;4.934;2022-07-15T14:25:33;24.80;99.90
15834;DHT22;8017;50.812;4.934;2022-07-15T14:28:35;24.80;99.90
15834;DHT22;8017;50.812;4.934;2022-07-15T14:31:37;24.90;99.60
15834;DHT22;8017;50.812;4.934;2022-07-15T14:34:39;25.00;98.90
15834;DHT22;8017;50.812;4.934;2022-07-15T14:37:41;25.30;98.20
15834;DHT22;8017;50.812;4.934;2022-07-15T14:40:44;25.70;98.30
15834;DHT22;8017;50.812;4.934;2022-07-15T14:43:46;26.00;98.00
15834;DHT22;8017;50.812;4.934;2022-07-15T14:46:48;25.90;98.00
15834;DHT22;8017;50.812;4.934;2022-07-15T14:49:50;26.50;98.30
15834;DHT22;8017;50.812;4.934;2022-07-15T14:52:52;26.10;99.20
15834;DHT22;8017;50.812;4.934;2022-07-15T14:55:55;25.70;99.90
15834;DHT22;8017;50.812;4.934;2022-07-15T14:58:58;25.90;99.70
15834;DHT22;8017;50.812;4.934;2022-07-15T15:01:59;25.70;98.60
15834;DHT22;8017;50.812;4.934;2022-07-15T15:05:02;26.10;99.40
15834;DHT22;8017;50.812;4.934;2022-07-15T15:08:04;26.40;98.70
15834;DHT22;8017;50.812;4.934;2022-07-15T15:11:07;25.30;99.70
15834;DHT22;8017;50.812;4.934;2022-07-15T15:14:09;24.90;99.90
15834;DHT22;8017;50.812;4.934;2022-07-15T15:17:12;25.00;99.90
15834;DHT22;8017;50.812;4.934;2022-07-15T15:20:14;25.20;99.60
15834;DHT22;8017;50.812;4.934;2022-07-15T15:23:16;25.50;99.40
15834;DHT22;8017;50.812;4.934;2022-07-15T15:26:19;25.40;99.30
15834;DHT22;8017;50.812;4.934;2022-07-15T15:29:25;25.40;99.10
15834;DHT22;8017;50.812;4.934;2022-07-15T15:32:28;25.80;98.40
15834;DHT22;8017;50.812;4.934;2022-07-15T15:35:30;26.10;98.60
15834;DHT22;8017;50.812;4.934;2022-07-15T15:38:32;26.30;98.40
15834;DHT22;8017;50.812;4.934;2022-07-15T15:41:35;27.10;97.50
15834;DHT22;8017;50.812;4.934;2022-07-15T15:44:38;27.60;96.60
15834;DHT22;8017;50.812;4.934;2022-07-15T15:47:40;27.20;97.20
15834;DHT22;8017;50.812;4.934;2022-07-15T15:50:42;27.10;97.00
15834;DHT22;8017;50.812;4.934;2022-07-15T15:53:44;27.00;97.20
15834;DHT22;8017;50.812;4.934;2022-07-15T15:56:47;27.10;96.80
15834;DHT22;8017;50.812;4.934;2022-07-15T15:59:50;26.10;97.70
15834;DHT22;8017;50.812;4.934;2022-07-15T16:02:52;26.30;97.50
15834;DHT22;8017;50.812;4.934;2022-07-15T16:05:53;26.70;96.70
15834;DHT22;8017;50.812;4.934;2022-07-15T16:08:56;27.30;96.10
15834;DHT22;8017;50.812;4.934;2022-07-15T16:11:59;27.40;95.00
15834;DHT22;8017;50.812;4.934;2022-07-15T16:15:02;27.30;95.10
15834;DHT22;8017;50.812;4.934;2022-07-15T16:18:04;26.80;96.00
15834;DHT22;8017;50.812;4.934;2022-07-15T16:21:06;26.40;96.60
15834;DHT22;8017;50.812;4.934;2022-07-15T16:24:08;26.30;97.00
15834;DHT22;8017;50.812;4.934;2022-07-15T16:27:10;26.90;96.70
15834;DHT22;8017;50.812;4.934;2022-07-15T16:30:12;27.20;96.50
15834;DHT22;8017;50.812;4.934;2022-07-15T16:33:14;27.50;96.00
15834;DHT22;8017;50.812;4.934;2022-07-15T16:36:16;27.70;95.60
15834;DHT22;8017;50.812;4.934;2022-07-15T16:39:18;27.30;96.10
15834;DHT22;8017;50.812;4.934;2022-07-15T16:42:21;27.60;95.80
15834;DHT22;8017;50.812;4.934;2022-07-15T16:45:23;27.20;96.20
15834;DHT22;8017;50.812;4.934;2022-07-15T16:48:25;27.20;96.40
15834;DHT22;8017;50.812;4.934;2022-07-15T16:51:27;27.50;95.30
15834;DHT22;8017;50.812;4.934;2022-07-15T16:54:29;27.10;95.70
15834;DHT22;8017;50.812;4.934;2022-07-15T16:57:32;26.10;96.70
15834;DHT22;8017;50.812;4.934;2022-07-15T17:00:34;25.10;98.00
15834;DHT22;8017;50.812;4.934;2022-07-15T17:03:36;24.80;98.70
15834;DHT22;8017;50.812;4.934;2022-07-15T17:06:38;24.90;98.80
15834;DHT22;8017;50.812;4.934;2022-07-15T17:09:40;25.60;98.10
15834;DHT22;8017;50.812;4.934;2022-07-15T17:12:44;26.20;97.80
15834;DHT22;8017;50.812;4.934;2022-07-15T17:15:45;27.00;97.00
15834;DHT22;8017;50.812;4.934;2022-07-15T17:18:47;26.90;96.70
15834;DHT22;8017;50.812;4.934;2022-07-15T17:21:49;26.90;96.70
15834;DHT22;8017;50.812;4.934;2022-07-15T17:24:51;26.00;97.70
15834;DHT22;8017;50.812;4.934;2022-07-15T17:27:54;24.90;99.10
15834;DHT22;8017;50.812;4.934;2022-07-15T17:30:56;25.00;99.40
15834;DHT22;8017;50.812;4.934;2022-07-15T17:33:59;25.90;98.80
15834;DHT22;8017;50.812;4.934;2022-07-15T17:37:01;27.30;97.30
15834;DHT22;8017;50.812;4.934;2022-07-15T17:40:03;27.40;97.80
15834;DHT22;8017;50.812;4.934;2022-07-15T17:43:07;27.70;96.60
15834;DHT22;8017;50.812;4.934;2022-07-15T17:46:09;28.10;95.50
15834;DHT22;8017;50.812;4.934;2022-07-15T17:49:12;27.60;96.10
15834;DHT22;8017;50.812;4.934;2022-07-15T17:52:14;27.70;95.80
15834;DHT22;8017;50.812;4.934;2022-07-15T17:55:16;28.00;95.80
15834;DHT22;8017;50.812;4.934;2022-07-15T17:58:20;27.90;96.00
15834;DHT22;8017;50.812;4.934;2022-07-15T18:01:23;28.20;95.60
15834;DHT22;8017;50.812;4.934;2022-07-15T18:04:25;28.00;95.70
15834;DHT22;8017;50.812;4.934;2022-07-15T18:07:27;27.80;95.70
15834;DHT22;8017;50.812;4.934;2022-07-15T18:10:29;27.80;95.70
15834;DHT22;8017;50.812;4.934;2022-07-15T18:13:32;27.90;96.00
15834;DHT22;8017;50.812;4.934;2022-07-15T18:16:34;28.00;95.50
15834;DHT22;8017;50.812;4.934;2022-07-15T18:19:36;27.70;96.20
15834;DHT22;8017;50.812;4.934;2022-07-15T18:22:38;27.70;96.10
15834;DHT22;8017;50.812;4.934;2022-07-15T18:25:40;27.10;96.40
15834;DHT22;8017;50.812;4.934;2022-07-15T18:28:44;26.40;97.50
15834;DHT22;8017;50.812;4.934;2022-07-15T18:31:46;25.80;98.30
15834;DHT22;8017;50.812;4.934;2022-07-15T18:34:48;25.40;98.70
15834;DHT22;8017;50.812;4.934;2022-07-15T18:37:50;25.10;99.30
15834;DHT22;8017;50.812;4.934;2022-07-15T18:40:52;25.00;99.50
15834;DHT22;8017;50.812;4.934;2022-07-15T18:43:56;24.80;99.90
15834;DHT22;8017;50.812;4.934;2022-07-15T18:46:59;24.40;99.90
15834;DHT22;8017;50.812;4.934;2022-07-15T18:50:01;24.10;99.90
15834;DHT22;8017;50.812;4.934;2022-07-15T18:53:04;24.00;99.90
15834;DHT22;8017;50.812;4.934;2022-07-15T18:56:06;23.80;99.90
15834;DHT22;8017;50.812;4.934;2022-07-15T18:59:10;23.50;99.90
15834;DHT22;8017;50.812;4.934;2022-07-15T19:02:11;23.40;99.90
15834;DHT22;8017;50.812;4.934;2022-07-15T19:05:13;23.20;99.90
15834;DHT22;8017;50.812;4.934;2022-07-15T19:08:16;23.00;99.90
15834;DHT22;8017;50.812;4.934;2022-07-15T19:11:18;22.90;99.90
15834;DHT22;8017;50.812;4.934;2022-07-15T19:14:22;22.70;99.90
15834;DHT22;8017;50.812;4.934;2022-07-15T19:17:23;22.50;99.90
15834;DHT22;8017;50.812;4.934;2022-07-15T19:20:26;22.40;99.90
15834;DHT22;8017;50.812;4.934;2022-07-15T19:23:28;22.40;99.90
15834;DHT22;8017;50.812;4.934;2022-07-15T19:26:31;22.30;99.90
15834;DHT22;8017;50.812;4.934;2022-07-15T19:29:34;22.00;99.90
15834;DHT22;8017;50.812;4.934;2022-07-15T19:32:36;21.90;99.90
15834;DHT22;8017;50.812;4.934;2022-07-15T19:35:38;21.80;99.90